sensor_id;sensor_type;location;lat;lon;timestamp;P1;durP1;ratioP1;P2;durP2;ratioP2
31974;SDS011;18500;43.618;1.474;2023-04-25T08:18:34;509.33;;;479.10;;
31974;SDS011;18500;43.618;1.474;2023-04-25T08:21:00;523.60;;;492.55;;
31974;SDS011;18500;43.618;1.474;2023-04-25T08:23:26;552.83;;;519.25;;
31974;SDS011;18500;43.618;1.474;2023-04-25T08:25:51;574.95;;;540.00;;
31974;SDS011;18500;43.618;1.474;2023-04-25T08:28:17;554.22;;;521.40;;
31974;SDS011;18500;43.618;1.474;2023-04-25T08:30:42;541.78;;;509.70;;
31974;SDS011;18500;43.618;1.474;2023-04-25T08:33:08;569.80;;;535.42;;
31974;SDS011;18500;43.618;1.474;2023-04-25T08:35:35;556.22;;;522.67;;
31974;SDS011;18500;43.618;1.474;2023-04-25T08:38:01;523.53;;;492.05;;
31974;SDS011;18500;43.618;1.474;2023-04-25T08:40:27;448.75;;;422.98;;
31974;SDS011;18500;43.618;1.474;2023-04-25T08:42:55;489.45;;;460.92;;
31974;SDS011;18500;43.618;1.474;2023-04-25T08:45:22;504.15;;;474.27;;
31974;SDS011;18500;43.618;1.474;2023-04-25T08:47:50;500.58;;;470.50;;
31974;SDS011;18500;43.618;1.474;2023-04-25T08:50:17;474.70;;;447.15;;
31974;SDS011;18500;43.618;1.474;2023-04-25T08:52:47;443.65;;;418.17;;
31974;SDS011;18500;43.618;1.474;2023-04-25T08:55:15;479.92;;;451.77;;
31974;SDS011;18500;43.618;1.474;2023-04-25T08:57:41;374.23;;;353.40;;
31974;SDS011;18500;43.618;1.474;2023-04-25T09:00:09;459.00;;;432.42;;
31974;SDS011;18500;43.618;1.474;2023-04-25T09:02:36;482.13;;;453.77;;
31974;SDS011;18500;43.618;1.474;2023-04-25T09:05:03;542.65;;;509.95;;
31974;SDS011;18500;43.618;1.474;2023-04-25T09:07:29;536.72;;;504.15;;
31974;SDS011;18500;43.618;1.474;2023-04-25T09:09:55;510.60;;;480.35;;
31974;SDS011;18500;43.618;1.474;2023-04-25T09:12:21;453.60;;;427.67;;
31974;SDS011;18500;43.618;1.474;2023-04-25T09:15:06;402.48;;;379.13;;
31974;SDS011;18500;43.618;1.474;2023-04-25T09:17:33;402.88;;;379.92;;
31974;SDS011;18500;43.618;1.474;2023-04-25T09:20:06;443.80;;;417.77;;
31974;SDS011;18500;43.618;1.474;2023-04-25T09:22:33;416.80;;;392.65;;
31974;SDS011;18500;43.618;1.474;2023-04-25T09:25:02;324.00;;;304.98;;
31974;SDS011;18500;43.618;1.474;2023-04-25T09:27:29;392.23;;;369.20;;
31974;SDS011;18500;43.618;1.474;2023-04-25T09:29:58;428.90;;;403.90;;
31974;SDS011;18500;43.618;1.474;2023-04-25T09:32:25;343.42;;;323.38;;
31974;SDS011;18500;43.618;1.474;2023-04-25T09:34:52;311.40;;;292.27;;
31974;SDS011;18500;43.618;1.474;2023-04-25T09:37:29;407.55;;;383.17;;
31974;SDS011;18500;43.618;1.474;2023-04-25T09:42:27;414.42;;;390.55;;
31974;SDS011;18500;43.618;1.474;2023-04-25T09:44:55;350.70;;;330.35;;
31974;SDS011;18500;43.618;1.474;2023-04-25T09:47:25;442.27;;;416.70;;
31974;SDS011;18500;43.618;1.474;2023-04-25T09:49:53;441.65;;;416.38;;
31974;SDS011;18500;43.618;1.474;2023-04-25T09:52:20;490.92;;;462.38;;
31974;SDS011;18500;43.618;1.474;2023-04-25T09:54:47;554.97;;;521.65;;
31974;SDS011;18500;43.618;1.474;2023-04-25T09:57:18;485.05;;;455.90;;
31974;SDS011;18500;43.618;1.474;2023-04-25T09:59:47;533.90;;;501.38;;
31974;SDS011;18500;43.618;1.474;2023-04-25T10:02:19;539.50;;;506.65;;
31974;SDS011;18500;43.618;1.474;2023-04-25T10:04:49;545.53;;;512.40;;
31974;SDS011;18500;43.618;1.474;2023-04-25T10:07:18;559.28;;;525.13;;
31974;SDS011;18500;43.618;1.474;2023-04-25T10:09:47;531.33;;;499.15;;
31974;SDS011;18500;43.618;1.474;2023-04-25T10:12:15;478.17;;;449.75;;
31974;SDS011;18500;43.618;1.474;2023-04-25T10:14:42;525.38;;;493.58;;
31974;SDS011;18500;43.618;1.474;2023-04-25T10:17:08;554.00;;;520.80;;
31974;SDS011;18500;43.618;1.474;2023-04-25T10:19:36;557.35;;;523.13;;
31974;SDS011;18500;43.618;1.474;2023-04-25T10:24:34;538.35;;;506.08;;
31974;SDS011;18500;43.618;1.474;2023-04-25T10:27:01;569.38;;;534.25;;
31974;SDS011;18500;43.618;1.474;2023-04-25T10:29:27;542.65;;;509.02;;
31974;SDS011;18500;43.618;1.474;2023-04-25T10:31:54;471.38;;;444.02;;
31974;SDS011;18500;43.618;1.474;2023-04-25T10:34:23;478.05;;;450.40;;
31974;SDS011;18500;43.618;1.474;2023-04-25T10:36:57;408.65;;;385.48;;
31974;SDS011;18500;43.618;1.474;2023-04-25T10:39:24;475.75;;;447.52;;
31974;SDS011;18500;43.618;1.474;2023-04-25T10:41:57;437.38;;;412.00;;
31974;SDS011;18500;43.618;1.474;2023-04-25T10:44:28;436.23;;;411.48;;
31974;SDS011;18500;43.618;1.474;2023-04-25T10:46:55;417.58;;;393.70;;
31974;SDS011;18500;43.618;1.474;2023-04-25T10:49:29;429.80;;;405.17;;
31974;SDS011;18500;43.618;1.474;2023-04-25T10:52:11;431.13;;;407.02;;
31974;SDS011;18500;43.618;1.474;2023-04-25T10:54:46;412.42;;;389.17;;
31974;SDS011;18500;43.618;1.474;2023-04-25T10:57:57;383.50;;;362.27;;
31974;SDS011;18500;43.618;1.474;2023-04-25T11:00:13;422.42;;;398.35;;
31974;SDS011;18500;43.618;1.474;2023-04-25T11:03:01;497.80;;;468.80;;
31974;SDS011;18500;43.618;1.474;2023-04-25T11:07:55;464.95;;;437.77;;
31974;SDS011;18500;43.618;1.474;2023-04-25T11:10:26;481.33;;;453.20;;
31974;SDS011;18500;43.618;1.474;2023-04-25T11:12:52;455.23;;;427.92;;
31974;SDS011;18500;43.618;1.474;2023-04-25T11:15:18;462.88;;;435.25;;
31974;SDS011;18500;43.618;1.474;2023-04-25T11:17:44;561.03;;;525.35;;
31974;SDS011;18500;43.618;1.474;2023-04-25T11:20:11;471.15;;;442.38;;
31974;SDS011;18500;43.618;1.474;2023-04-25T11:22:39;435.85;;;409.45;;
31974;SDS011;18500;43.618;1.474;2023-04-25T11:25:08;600.13;;;561.22;;
31974;SDS011;18500;43.618;1.474;2023-04-25T11:27:39;329.08;;;309.73;;
31974;SDS011;18500;43.618;1.474;2023-04-25T11:30:16;371.27;;;349.10;;
31974;SDS011;18500;43.618;1.474;2023-04-25T11:32:42;570.50;;;533.15;;
31974;SDS011;18500;43.618;1.474;2023-04-25T11:35:09;423.23;;;397.45;;
31974;SDS011;18500;43.618;1.474;2023-04-25T11:37:35;511.30;;;482.10;;
31974;SDS011;18500;43.618;1.474;2023-04-25T11:40:02;650.35;;;607.35;;
31974;SDS011;18500;43.618;1.474;2023-04-25T11:42:31;645.15;;;602.03;;
31974;SDS011;18500;43.618;1.474;2023-04-25T11:44:57;730.80;;;679.28;;
31974;SDS011;18500;43.618;1.474;2023-04-25T11:47:30;668.80;;;623.80;;
31974;SDS011;18500;43.618;1.474;2023-04-25T11:50:00;684.63;;;640.50;;
31974;SDS011;18500;43.618;1.474;2023-04-25T11:55:05;669.50;;;624.83;;
31974;SDS011;18500;43.618;1.474;2023-04-25T11:57:37;719.58;;;671.72;;
31974;SDS011;18500;43.618;1.474;2023-04-25T12:02:43;668.95;;;625.38;;
31974;SDS011;18500;43.618;1.474;2023-04-25T12:05:11;565.95;;;530.15;;
31974;SDS011;18500;43.618;1.474;2023-04-25T12:07:38;576.40;;;539.47;;
31974;SDS011;18500;43.618;1.474;2023-04-25T12:10:07;616.45;;;577.42;;
31974;SDS011;18500;43.618;1.474;2023-04-25T12:12:35;582.15;;;544.83;;
31974;SDS011;18500;43.618;1.474;2023-04-25T12:15:11;645.17;;;603.58;;
31974;SDS011;18500;43.618;1.474;2023-04-25T12:17:39;621.03;;;581.92;;
31974;SDS011;18500;43.618;1.474;2023-04-25T12:20:18;657.83;;;616.10;;
31974;SDS011;18500;43.618;1.474;2023-04-25T12:22:46;647.70;;;603.35;;
31974;SDS011;18500;43.618;1.474;2023-04-25T12:25:20;767.28;;;713.13;;
31974;SDS011;18500;43.618;1.474;2023-04-25T12:28:22;571.13;;;533.28;;
31974;SDS011;18500;43.618;1.474;2023-04-25T12:33:22;689.42;;;643.45;;
31974;SDS011;18500;43.618;1.474;2023-04-25T12:35:48;642.65;;;601.22;;
31974;SDS011;18500;43.618;1.474;2023-04-25T12:38:21;626.15;;;585.97;;
31974;SDS011;18500;43.618;1.474;2023-04-25T12:40:51;491.60;;;463.13;;
31974;SDS011;18500;43.618;1.474;2023-04-25T12:43:17;710.42;;;661.72;;
31974;SDS011;18500;43.618;1.474;2023-04-25T12:45:44;511.33;;;480.08;;
31974;SDS011;18500;43.618;1.474;2023-04-25T12:48:10;611.28;;;571.53;;
31974;SDS011;18500;43.618;1.474;2023-04-25T12:50:36;598.28;;;561.60;;
31974;SDS011;18500;43.618;1.474;2023-04-25T12:53:01;642.17;;;599.33;;
31974;SDS011;18500;43.618;1.474;2023-04-25T12:55:27;695.05;;;650.80;;
31974;SDS011;18500;43.618;1.474;2023-04-25T12:57:53;685.75;;;638.95;;
31974;SDS011;18500;43.618;1.474;2023-04-25T13:00:18;649.88;;;606.63;;
31974;SDS011;18500;43.618;1.474;2023-04-25T13:02:45;651.28;;;607.78;;
31974;SDS011;18500;43.618;1.474;2023-04-25T13:05:14;636.08;;;593.47;;
31974;SDS011;18500;43.618;1.474;2023-04-25T13:07:40;651.22;;;607.63;;
31974;SDS011;18500;43.618;1.474;2023-04-25T13:10:06;662.15;;;617.05;;
31974;SDS011;18500;43.618;1.474;2023-04-25T13:12:32;635.15;;;593.45;;
31974;SDS011;18500;43.618;1.474;2023-04-25T13:14:58;671.55;;;624.17;;
31974;SDS011;18500;43.618;1.474;2023-04-25T13:17:24;688.42;;;639.63;;
31974;SDS011;18500;43.618;1.474;2023-04-25T13:19:49;704.50;;;653.42;;
31974;SDS011;18500;43.618;1.474;2023-04-25T13:22:15;736.92;;;682.97;;
31974;SDS011;18500;43.618;1.474;2023-04-25T13:24:42;724.38;;;672.38;;
31974;SDS011;18500;43.618;1.474;2023-04-25T13:27:08;681.17;;;634.15;;
31974;SDS011;18500;43.618;1.474;2023-04-25T13:29:33;620.55;;;580.67;;
31974;SDS011;18500;43.618;1.474;2023-04-25T13:32:00;603.88;;;565.85;;
31974;SDS011;18500;43.618;1.474;2023-04-25T13:34:27;733.58;;;682.72;;
31974;SDS011;18500;43.618;1.474;2023-04-25T13:36:53;698.00;;;649.38;;
31974;SDS011;18500;43.618;1.474;2023-04-25T13:39:19;571.38;;;536.60;;
31974;SDS011;18500;43.618;1.474;2023-04-25T13:41:45;670.55;;;623.90;;
31974;SDS011;18500;43.618;1.474;2023-04-25T13:44:10;561.97;;;525.13;;
31974;SDS011;18500;43.618;1.474;2023-04-25T13:46:36;496.23;;;467.52;;
31974;SDS011;18500;43.618;1.474;2023-04-25T13:49:05;708.97;;;659.53;;
31974;SDS011;18500;43.618;1.474;2023-04-25T13:51:31;705.88;;;657.20;;
31974;SDS011;18500;43.618;1.474;2023-04-25T13:53:57;541.22;;;509.17;;
31974;SDS011;18500;43.618;1.474;2023-04-25T13:56:23;677.38;;;630.30;;
31974;SDS011;18500;43.618;1.474;2023-04-25T13:58:49;677.25;;;630.63;;
31974;SDS011;18500;43.618;1.474;2023-04-25T14:01:16;561.05;;;526.40;;
31974;SDS011;18500;43.618;1.474;2023-04-25T14:03:42;617.10;;;579.35;;
31974;SDS011;18500;43.618;1.474;2023-04-25T14:06:08;615.45;;;575.83;;
31974;SDS011;18500;43.618;1.474;2023-04-25T14:08:34;583.45;;;546.72;;
31974;SDS011;18500;43.618;1.474;2023-04-25T14:10:59;651.90;;;608.67;;
31974;SDS011;18500;43.618;1.474;2023-04-25T14:13:25;680.17;;;634.30;;
31974;SDS011;18500;43.618;1.474;2023-04-25T14:15:51;531.10;;;499.13;;
31974;SDS011;18500;43.618;1.474;2023-04-25T14:18:17;581.53;;;544.83;;
31974;SDS011;18500;43.618;1.474;2023-04-25T14:20:43;588.85;;;551.45;;
31974;SDS011;18500;43.618;1.474;2023-04-25T14:23:09;510.40;;;480.50;;
31974;SDS011;18500;43.618;1.474;2023-04-25T14:25:35;524.90;;;493.75;;
31974;SDS011;18500;43.618;1.474;2023-04-25T14:28:01;607.65;;;569.08;;
31974;SDS011;18500;43.618;1.474;2023-04-25T14:30:27;570.15;;;534.95;;
31974;SDS011;18500;43.618;1.474;2023-04-25T14:32:53;542.45;;;509.73;;
31974;SDS011;18500;43.618;1.474;2023-04-25T14:35:19;688.28;;;642.38;;
31974;SDS011;18500;43.618;1.474;2023-04-25T14:37:44;604.25;;;565.88;;
31974;SDS011;18500;43.618;1.474;2023-04-25T14:40:10;537.17;;;505.90;;
31974;SDS011;18500;43.618;1.474;2023-04-25T14:42:38;530.13;;;498.85;;
31974;SDS011;18500;43.618;1.474;2023-04-25T14:45:05;421.08;;;397.40;;
31974;SDS011;18500;43.618;1.474;2023-04-25T14:47:32;758.20;;;708.40;;
31974;SDS011;18500;43.618;1.474;2023-04-25T14:49:58;601.08;;;563.92;;
31974;SDS011;18500;43.618;1.474;2023-04-25T14:52:24;562.15;;;528.10;;
31974;SDS011;18500;43.618;1.474;2023-04-25T14:54:50;554.28;;;519.83;;
31974;SDS011;18500;43.618;1.474;2023-04-25T14:57:16;528.10;;;495.33;;
31974;SDS011;18500;43.618;1.474;2023-04-25T14:59:42;544.40;;;510.48;;
31974;SDS011;18500;43.618;1.474;2023-04-25T15:02:07;530.60;;;498.10;;
31974;SDS011;18500;43.618;1.474;2023-04-25T15:04:33;478.40;;;449.45;;
31974;SDS011;18500;43.618;1.474;2023-04-25T15:06:59;543.90;;;510.13;;
31974;SDS011;18500;43.618;1.474;2023-04-25T15:09:24;512.65;;;482.08;;
31974;SDS011;18500;43.618;1.474;2023-04-25T15:11:50;469.40;;;442.85;;
31974;SDS011;18500;43.618;1.474;2023-04-25T15:14:16;599.22;;;560.38;;
31974;SDS011;18500;43.618;1.474;2023-04-25T15:16:42;454.73;;;428.45;;
31974;SDS011;18500;43.618;1.474;2023-04-25T15:19:08;462.35;;;435.48;;
31974;SDS011;18500;43.618;1.474;2023-04-25T15:21:34;477.45;;;449.80;;
31974;SDS011;18500;43.618;1.474;2023-04-25T15:24:00;494.80;;;464.98;;
31974;SDS011;18500;43.618;1.474;2023-04-25T15:26:26;508.17;;;477.17;;
31974;SDS011;18500;43.618;1.474;2023-04-25T15:28:52;564.45;;;529.33;;
31974;SDS011;18500;43.618;1.474;2023-04-25T15:31:18;543.63;;;509.92;;
31974;SDS011;18500;43.618;1.474;2023-04-25T15:33:44;563.85;;;528.60;;
31974;SDS011;18500;43.618;1.474;2023-04-25T15:36:10;561.53;;;527.45;;
31974;SDS011;18500;43.618;1.474;2023-04-25T15:38:36;557.47;;;523.00;;
31974;SDS011;18500;43.618;1.474;2023-04-25T15:41:01;548.85;;;514.95;;
31974;SDS011;18500;43.618;1.474;2023-04-25T15:43:27;515.17;;;483.33;;
31974;SDS011;18500;43.618;1.474;2023-04-25T15:45:53;543.90;;;509.40;;
31974;SDS011;18500;43.618;1.474;2023-04-25T15:48:19;565.78;;;529.28;;
31974;SDS011;18500;43.618;1.474;2023-04-25T15:50:45;550.83;;;516.08;;
31974;SDS011;18500;43.618;1.474;2023-04-25T15:53:11;565.63;;;529.83;;
31974;SDS011;18500;43.618;1.474;2023-04-25T15:55:37;527.22;;;493.55;;
31974;SDS011;18500;43.618;1.474;2023-04-25T15:58:03;544.47;;;510.58;;
31974;SDS011;18500;43.618;1.474;2023-04-25T16:00:29;618.03;;;577.55;;
31974;SDS011;18500;43.618;1.474;2023-04-25T16:02:55;510.67;;;479.42;;
31974;SDS011;18500;43.618;1.474;2023-04-25T16:05:21;527.90;;;495.08;;
31974;SDS011;18500;43.618;1.474;2023-04-25T16:07:47;551.78;;;517.00;;
31974;SDS011;18500;43.618;1.474;2023-04-25T16:10:13;638.83;;;597.50;;
31974;SDS011;18500;43.618;1.474;2023-04-25T16:12:43;569.83;;;534.30;;
31974;SDS011;18500;43.618;1.474;2023-04-25T16:15:11;569.80;;;533.58;;
31974;SDS011;18500;43.618;1.474;2023-04-25T16:17:37;662.42;;;615.47;;
31974;SDS011;18500;43.618;1.474;2023-04-25T16:20:03;702.80;;;651.42;;
31974;SDS011;18500;43.618;1.474;2023-04-25T16:22:34;669.05;;;621.15;;
31974;SDS011;18500;43.618;1.474;2023-04-25T16:25:00;670.40;;;622.50;;
31974;SDS011;18500;43.618;1.474;2023-04-25T16:27:26;654.83;;;609.60;;
31974;SDS011;18500;43.618;1.474;2023-04-25T16:29:52;599.88;;;560.00;;
31974;SDS011;18500;43.618;1.474;2023-04-25T16:32:18;633.13;;;591.88;;
31974;SDS011;18500;43.618;1.474;2023-04-25T16:34:43;592.72;;;554.90;;
31974;SDS011;18500;43.618;1.474;2023-04-25T16:37:09;612.72;;;573.00;;
31974;SDS011;18500;43.618;1.474;2023-04-25T16:39:35;557.22;;;523.13;;
31974;SDS011;18500;43.618;1.474;2023-04-25T16:42:00;563.15;;;528.65;;
31974;SDS011;18500;43.618;1.474;2023-04-25T16:44:26;574.67;;;539.08;;
31974;SDS011;18500;43.618;1.474;2023-04-25T16:46:52;594.75;;;557.17;;
31974;SDS011;18500;43.618;1.474;2023-04-25T16:49:17;548.53;;;514.33;;
31974;SDS011;18500;43.618;1.474;2023-04-25T16:51:43;554.92;;;521.00;;
31974;SDS011;18500;43.618;1.474;2023-04-25T16:54:10;542.67;;;509.17;;
31974;SDS011;18500;43.618;1.474;2023-04-25T16:56:36;566.20;;;531.47;;
31974;SDS011;18500;43.618;1.474;2023-04-25T16:59:01;543.58;;;510.45;;
31974;SDS011;18500;43.618;1.474;2023-04-25T17:01:27;548.00;;;514.38;;
31974;SDS011;18500;43.618;1.474;2023-04-25T17:03:53;524.95;;;492.90;;
31974;SDS011;18500;43.618;1.474;2023-04-25T17:06:19;560.58;;;526.38;;
31974;SDS011;18500;43.618;1.474;2023-04-25T17:08:44;554.60;;;520.50;;
31974;SDS011;18500;43.618;1.474;2023-04-25T17:11:10;550.30;;;516.33;;
31974;SDS011;18500;43.618;1.474;2023-04-25T17:13:36;562.75;;;528.53;;
31974;SDS011;18500;43.618;1.474;2023-04-25T17:16:02;512.10;;;481.70;;
31974;SDS011;18500;43.618;1.474;2023-04-25T17:18:28;522.10;;;491.23;;
31974;SDS011;18500;43.618;1.474;2023-04-25T17:20:54;525.22;;;493.88;;
31974;SDS011;18500;43.618;1.474;2023-04-25T17:23:19;495.98;;;466.92;;
31974;SDS011;18500;43.618;1.474;2023-04-25T17:25:45;536.05;;;503.65;;
31974;SDS011;18500;43.618;1.474;2023-04-25T17:28:11;637.72;;;594.65;;
31974;SDS011;18500;43.618;1.474;2023-04-25T17:30:37;529.42;;;496.15;;
31974;SDS011;18500;43.618;1.474;2023-04-25T17:33:03;489.48;;;460.27;;
31974;SDS011;18500;43.618;1.474;2023-04-25T17:35:30;579.95;;;542.90;;
31974;SDS011;18500;43.618;1.474;2023-04-25T17:37:58;541.33;;;507.23;;
31974;SDS011;18500;43.618;1.474;2023-04-25T17:40:24;415.90;;;392.48;;
31974;SDS011;18500;43.618;1.474;2023-04-25T17:42:50;443.38;;;417.92;;
31974;SDS011;18500;43.618;1.474;2023-04-25T17:45:16;478.45;;;449.58;;
31974;SDS011;18500;43.618;1.474;2023-04-25T17:47:42;450.15;;;424.52;;
31974;SDS011;18500;43.618;1.474;2023-04-25T17:50:07;418.77;;;395.80;;
31974;SDS011;18500;43.618;1.474;2023-04-25T17:52:33;459.10;;;432.77;;
31974;SDS011;18500;43.618;1.474;2023-04-25T17:54:59;456.67;;;430.60;;
31974;SDS011;18500;43.618;1.474;2023-04-25T17:57:25;551.03;;;516.50;;
31974;SDS011;18500;43.618;1.474;2023-04-25T17:59:51;571.90;;;535.47;;
31974;SDS011;18500;43.618;1.474;2023-04-25T18:02:17;580.67;;;543.60;;
31974;SDS011;18500;43.618;1.474;2023-04-25T18:04:43;492.80;;;463.80;;
31974;SDS011;18500;43.618;1.474;2023-04-25T18:07:09;583.65;;;547.50;;
31974;SDS011;18500;43.618;1.474;2023-04-25T18:09:35;598.88;;;561.15;;
31974;SDS011;18500;43.618;1.474;2023-04-25T18:12:00;543.08;;;509.25;;
31974;SDS011;18500;43.618;1.474;2023-04-25T18:14:27;564.78;;;529.70;;
31974;SDS011;18500;43.618;1.474;2023-04-25T18:16:53;597.58;;;559.40;;
31974;SDS011;18500;43.618;1.474;2023-04-25T18:19:19;524.60;;;492.98;;
31974;SDS011;18500;43.618;1.474;2023-04-25T18:21:47;516.42;;;486.25;;
31974;SDS011;18500;43.618;1.474;2023-04-25T18:24:18;549.95;;;516.53;;
31974;SDS011;18500;43.618;1.474;2023-04-25T18:26:48;521.80;;;490.92;;
31974;SDS011;18500;43.618;1.474;2023-04-25T18:29:14;555.28;;;521.70;;
31974;SDS011;18500;43.618;1.474;2023-04-25T18:31:42;546.05;;;513.35;;
31974;SDS011;18500;43.618;1.474;2023-04-25T18:34:08;513.22;;;482.35;;
31974;SDS011;18500;43.618;1.474;2023-04-25T18:36:34;443.52;;;418.02;;
31974;SDS011;18500;43.618;1.474;2023-04-25T18:39:01;499.58;;;470.38;;
31974;SDS011;18500;43.618;1.474;2023-04-25T18:41:29;503.35;;;474.23;;
31974;SDS011;18500;43.618;1.474;2023-04-25T18:43:55;454.90;;;428.48;;
31974;SDS011;18500;43.618;1.474;2023-04-25T18:46:25;497.05;;;468.17;;
31974;SDS011;18500;43.618;1.474;2023-04-25T18:48:51;545.45;;;513.58;;
31974;SDS011;18500;43.618;1.474;2023-04-25T18:51:17;478.08;;;450.08;;
31974;SDS011;18500;43.618;1.474;2023-04-25T18:53:44;506.90;;;476.85;;
31974;SDS011;18500;43.618;1.474;2023-04-25T18:56:10;533.40;;;502.00;;
31974;SDS011;18500;43.618;1.474;2023-04-25T18:58:37;506.67;;;477.40;;
31974;SDS011;18500;43.618;1.474;2023-04-25T19:01:03;500.58;;;471.77;;
31974;SDS011;18500;43.618;1.474;2023-04-25T19:03:29;500.38;;;471.63;;
31974;SDS011;18500;43.618;1.474;2023-04-25T19:05:54;478.45;;;451.48;;
31974;SDS011;18500;43.618;1.474;2023-04-25T19:08:20;510.98;;;481.48;;
31974;SDS011;18500;43.618;1.474;2023-04-25T19:10:47;501.15;;;472.35;;
31974;SDS011;18500;43.618;1.474;2023-04-25T19:13:14;526.65;;;495.55;;
31974;SDS011;18500;43.618;1.474;2023-04-25T19:15:39;606.10;;;566.28;;
31974;SDS011;18500;43.618;1.474;2023-04-25T19:18:05;542.65;;;509.15;;
31974;SDS011;18500;43.618;1.474;2023-04-25T19:20:33;505.25;;;475.25;;
31974;SDS011;18500;43.618;1.474;2023-04-25T19:22:59;524.97;;;493.35;;
31974;SDS011;18500;43.618;1.474;2023-04-25T19:25:25;566.88;;;530.38;;
31974;SDS011;18500;43.618;1.474;2023-04-25T19:27:51;518.70;;;487.45;;
31974;SDS011;18500;43.618;1.474;2023-04-25T19:30:17;519.85;;;489.13;;
31974;SDS011;18500;43.618;1.474;2023-04-25T19:32:43;503.88;;;473.48;;
31974;SDS011;18500;43.618;1.474;2023-04-25T19:35:10;509.95;;;479.35;;
31974;SDS011;18500;43.618;1.474;2023-04-25T19:37:36;529.05;;;497.88;;
31974;SDS011;18500;43.618;1.474;2023-04-25T19:40:02;467.17;;;440.05;;
31974;SDS011;18500;43.618;1.474;2023-04-25T19:42:31;474.17;;;445.70;;
31974;SDS011;18500;43.618;1.474;2023-04-25T19:44:57;495.98;;;466.77;;
31974;SDS011;18500;43.618;1.474;2023-04-25T19:47:23;494.67;;;464.25;;
31974;SDS011;18500;43.618;1.474;2023-04-25T19:49:51;504.67;;;473.73;;
31974;SDS011;18500;43.618;1.474;2023-04-25T19:52:17;491.13;;;462.60;;
31974;SDS011;18500;43.618;1.474;2023-04-25T19:54:42;486.63;;;458.25;;
31974;SDS011;18500;43.618;1.474;2023-04-25T19:57:11;465.55;;;438.35;;
31974;SDS011;18500;43.618;1.474;2023-04-25T19:59:37;500.58;;;471.65;;
31974;SDS011;18500;43.618;1.474;2023-04-25T20:02:04;499.92;;;470.90;;
31974;SDS011;18500;43.618;1.474;2023-04-25T20:04:30;533.08;;;501.13;;
31974;SDS011;18500;43.618;1.474;2023-04-25T20:06:57;514.33;;;483.92;;
31974;SDS011;18500;43.618;1.474;2023-04-25T20:09:23;508.77;;;478.40;;
31974;SDS011;18500;43.618;1.474;2023-04-25T20:11:48;529.28;;;492.80;;
31974;SDS011;18500;43.618;1.474;2023-04-25T20:14:14;554.00;;;516.38;;
31974;SDS011;18500;43.618;1.474;2023-04-25T20:16:40;527.20;;;492.23;;
31974;SDS011;18500;43.618;1.474;2023-04-25T20:19:06;458.10;;;429.75;;
31974;SDS011;18500;43.618;1.474;2023-04-25T20:21:32;520.80;;;487.58;;
31974;SDS011;18500;43.618;1.474;2023-04-25T20:23:58;524.03;;;491.70;;
